Terminal Aerodrome Forecast
Issued by NWS

Home | Current Version | Previous Version | Text Only | Print | Product List | Glossary On
Versions: 1 2 3 4 5 6 7 8 9 10 11 12 13 14 15 16 17 18 19 20 21 22 23
000
FTUS44 KLIX 280249 AAC
TAFMCB
TAF AMD
KMCB 280249Z 2803/2824 00000KT P6SM OVC025
     FM280500 09004KT 1SM BR BKN012 OVC020
     FM281200 08007KT P6SM OVC025
     FM281700 02004KT P6SM OVC015
     FM282200 34008KT P6SM BKN008=

USA.gov is the U.S. government's official web portal to all federal, state and local government web resources and services.